Estación Meteorológica Peña el Pijo (Robertgarden) [ 09/23/18 02:41:29 CEST ]

Fecha Hora Presion(HPa) Temp (°C) Humedad % Rocio (°C) Viento ( m/s) Direccion Lluvia 1Hora(mm) Lluvia 24H(mm) LLuvia Total(mm)
2018-Jul-11 01:02:00 1011.300 21.7 39 7.1         269.36
2018-Jul-11 02:01:47 1011.100 20.7 41 7.0         269.36
2018-Jul-11 03:01:47 1010.700 20.5 41 6.8         269.36
2018-Jul-11 04:02:05 1010.500 18.1 45 5.9         269.36
2018-Jul-11 05:02:05 1010.400 16.8 48 5.4         269.36
2018-Jul-11 06:02:13 1010.300 16.5 52 6.6         269.36
2018-Jul-11 07:01:43 1010.400 14.9 59 6.9         269.36
2018-Jul-11 08:01:43 1010.000 18.0 60 10.1         269.36
2018-Jul-11 09:01:38 1009.800 22.9 51 12.2         269.36
2018-Jul-11 10:01:46 1010.000 28.5 40 14.0         269.36
2018-Jul-11 11:01:31 1009.600 32.6 32 13.7         269.36
2018-Jul-11 12:01:37 1009.600 32.4 27 10.8         269.36
2018-Jul-11 13:01:26 1009.200 33.9 24 10.3         269.36
2018-Jul-11 14:01:35 1008.700 34.1 20 8.0         269.36
2018-Jul-11 15:01:41 1007.900 36.3 17 6.8         269.36
2018-Jul-11 16:01:59 1007.400 37.4 14 4.7         269.36
2018-Jul-11 17:01:43 1006.900 36.6 18 8.1         269.36
2018-Jul-11 18:01:42 1007.000 34.4 15 3.3 3.3 N     269.36
2018-Jul-11 19:01:50 1007.000 32.4 19 5.6         269.36
2018-Jul-11 20:02:01 1007.400 30.4 23 6.7         269.36
2018-Jul-11 21:01:48 1007.700 27.1 30 8.1 1.0 NW     269.36
2018-Jul-11 22:01:51 1008.500 24.8 36 8.6         269.36
2018-Jul-11 23:01:40 1009.500 22.1 41 8.2         269.36

Temperatura Máxima:37°    Temperatura Mínima:14°
Presión Máxima:1011.300 Hpa    Presión Mínima:1006.900 Hpa


Volver